createdAt,value
2017-08-24T17:40:32.006Z,20.67
2017-08-24T17:41:34.630Z,18.10
2017-08-24T17:42:37.239Z,15.23
2017-08-24T17:43:39.791Z,14.57
2017-08-24T17:44:42.445Z,19.73
2017-08-24T17:45:45.039Z,19.10
2017-08-24T17:46:47.603Z,13.27
2017-08-24T17:47:50.251Z,11.30
2017-08-24T17:48:52.859Z,17.50
2017-08-24T17:49:55.440Z,13.87
2017-08-24T17:50:58.077Z,15.87
2017-08-24T17:52:00.734Z,13.43
2017-08-24T17:53:03.280Z,15.63
2017-08-24T17:54:06.561Z,13.50
2017-08-24T17:55:09.115Z,16.33
2017-08-24T17:56:11.658Z,14.37
2017-08-24T17:57:14.230Z,11.90
2017-08-24T17:58:16.776Z,11.03
2017-08-24T17:59:19.329Z,10.20
2017-08-24T18:00:21.872Z,11.60
2017-08-24T18:27:00.387Z,13.43
2017-08-24T18:28:02.979Z,13.30
2017-08-24T18:29:05.528Z,14.43
2017-08-24T18:30:08.069Z,23.33
2017-08-24T18:31:10.614Z,14.60
2017-08-24T18:32:13.157Z,9.67
2017-08-24T18:33:15.740Z,12.30
2017-08-24T18:34:18.280Z,17.23
2017-08-24T18:35:20.829Z,9.77
2017-08-24T18:36:23.375Z,19.43
2017-08-24T18:37:26.772Z,13.20
2017-08-24T18:38:29.435Z,16.70
2017-08-24T18:39:32.029Z,13.67
2017-08-24T18:40:34.575Z,11.00
2017-08-24T18:41:37.118Z,11.07
2017-08-24T18:42:39.656Z,9.87
2017-08-24T18:43:42.213Z,13.53
2017-08-24T18:44:44.790Z,13.87
2017-08-24T18:45:47.365Z,15.70
2017-08-24T18:46:49.980Z,10.40
2017-08-24T18:47:52.524Z,13.53
2017-08-24T18:48:55.087Z,32.10
2017-08-24T18:49:57.651Z,18.83
2017-08-24T18:51:00.188Z,19.97
2017-08-24T18:52:02.769Z,9.03
2017-08-24T18:53:05.358Z,20.43
2017-08-24T18:54:07.917Z,16.90
2017-08-24T18:55:10.461Z,10.60
2017-08-24T18:56:13.018Z,19.80
2017-08-24T18:57:15.565Z,12.87
2017-08-24T18:58:18.110Z,19.53
2017-08-24T18:59:20.665Z,12.10
2017-08-24T19:00:23.252Z,12.57
2017-08-24T19:01:25.793Z,14.33
2017-08-24T19:02:28.341Z,11.83
2017-08-24T19:03:30.897Z,8.50
2017-08-24T19:04:33.506Z,10.53
2017-08-24T19:05:36.097Z,17.80
2017-08-24T19:06:38.646Z,9.83
2017-08-24T19:07:41.191Z,9.83
2017-08-24T19:08:43.734Z,9.53
2017-08-24T19:09:46.284Z,13.67
2017-08-24T19:10:49.434Z,16.03
2017-08-24T19:11:52.097Z,10.53
2017-08-24T19:12:54.656Z,13.93
2017-08-24T19:13:57.214Z,10.80
2017-08-24T19:15:00.481Z,9.70
2017-08-24T19:16:03.091Z,11.30
2017-08-24T19:17:05.648Z,13.70
2017-08-24T19:18:08.189Z,9.87
2017-08-24T19:19:10.737Z,10.27
2017-08-24T19:20:13.278Z,8.23
2017-08-24T19:21:15.854Z,14.87
2017-08-24T19:22:18.402Z,15.47
2017-08-24T19:23:20.979Z,11.40
2017-08-24T19:24:23.648Z,8.57
2017-08-24T19:25:26.272Z,9.50
2017-08-24T19:26:28.849Z,12.97
2017-08-24T19:27:31.421Z,12.33
2017-08-24T19:28:33.993Z,12.43
2017-08-24T19:29:36.565Z,8.53
2017-08-24T19:30:39.177Z,11.20
2017-08-24T19:31:41.789Z,11.13
2017-08-24T19:32:44.329Z,18.03
2017-08-24T19:33:46.881Z,11.77
2017-08-24T19:34:49.468Z,10.97
2017-08-24T19:35:52.830Z,10.83
2017-08-24T19:36:55.382Z,10.90
2017-08-24T19:37:57.940Z,10.10
2017-08-24T19:39:00.505Z,11.43
2017-08-24T19:40:03.098Z,9.13
2017-08-24T19:41:05.648Z,10.87
2017-08-24T19:42:08.208Z,12.70
2017-08-24T19:43:12.032Z,12.47
2017-08-24T19:44:14.589Z,11.53
2017-08-24T19:45:17.165Z,11.60
2017-08-24T19:46:19.727Z,10.53
2017-08-24T19:47:22.269Z,10.00
2017-08-24T19:48:24.805Z,8.60
2017-08-24T19:49:27.366Z,13.20
2017-08-24T19:50:29.949Z,11.10
2017-08-24T19:51:32.501Z,9.50
2017-08-24T19:52:35.889Z,8.33
2017-08-24T19:53:38.441Z,11.33
2017-08-24T19:54:41.053Z,9.97
2017-08-24T19:55:43.596Z,11.53
2017-08-24T19:56:46.152Z,12.83
2017-08-24T19:57:48.747Z,9.87
2017-08-24T19:58:51.376Z,16.17
2017-08-24T20:00:59.961Z,15.40
2017-08-24T20:02:02.511Z,56.80
2017-08-24T20:03:05.108Z,126.37
2017-08-24T20:04:07.681Z,110.53
2017-08-24T20:05:10.288Z,110.50
2017-08-24T20:06:12.845Z,74.90
2017-08-24T20:07:16.259Z,67.33
2017-08-24T20:08:18.811Z,64.50
2017-08-24T20:09:21.880Z,60.83
2017-08-24T20:10:24.458Z,51.47
2017-08-24T20:11:27.135Z,42.80
2017-08-24T20:12:29.697Z,44.03
2017-08-24T20:13:32.282Z,39.63
2017-08-24T20:14:34.831Z,39.53
2017-08-24T20:15:37.708Z,33.23
2017-08-24T20:16:40.363Z,32.70
2017-08-24T20:17:42.940Z,32.63
2017-08-24T20:18:45.489Z,34.43
2017-08-24T20:19:48.038Z,32.93
2017-08-24T20:20:50.641Z,26.47
2017-08-24T20:21:53.194Z,23.43
2017-08-24T20:22:55.746Z,23.77
2017-08-24T20:23:58.296Z,28.03
2017-08-24T20:25:00.841Z,19.17
2017-08-24T20:26:03.406Z,29.87
2017-08-24T20:27:05.966Z,26.30
2017-08-24T20:28:08.518Z,25.50
2017-08-24T20:29:11.117Z,21.03
2017-08-24T20:30:13.667Z,17.43
2017-08-24T20:31:16.226Z,15.50
2017-08-24T20:32:18.770Z,19.60
2017-08-24T20:33:21.321Z,19.57
2017-08-24T20:34:23.913Z,17.00
2017-08-24T20:35:26.500Z,19.40
2017-08-24T20:36:29.049Z,20.63
2017-08-24T20:37:31.675Z,15.40
2017-08-24T20:38:34.243Z,17.17
2017-08-24T20:39:36.942Z,13.67
2017-08-24T20:40:39.528Z,13.90
2017-08-24T20:41:42.081Z,17.50
2017-08-24T20:42:44.630Z,19.53
2017-08-24T20:43:47.193Z,16.07
2017-08-24T20:44:49.764Z,13.63
2017-08-24T20:45:52.364Z,14.23
2017-08-24T20:46:54.949Z,15.13
2017-08-24T20:47:57.543Z,11.13
2017-08-24T20:49:00.097Z,15.30
2017-08-24T20:50:02.677Z,16.63
2017-08-24T20:51:05.229Z,11.03
2017-08-24T20:52:07.774Z,14.33
2017-08-24T20:53:11.018Z,11.77
2017-08-24T20:54:14.477Z,17.90
2017-08-24T20:55:17.054Z,13.10
2017-08-24T20:56:19.596Z,9.90
2017-08-24T20:57:22.221Z,15.03
2017-08-24T20:58:25.290Z,11.50
2017-08-24T20:59:27.837Z,9.33
2017-08-24T21:00:30.385Z,15.03
2017-08-24T21:01:32.932Z,10.47
2017-08-24T21:02:35.497Z,9.33
2017-08-24T21:03:38.537Z,9.97
2017-08-24T21:04:41.993Z,11.63
2017-08-24T21:05:44.546Z,11.57
2017-08-24T21:06:47.122Z,9.93
2017-08-24T21:07:49.673Z,12.40
2017-08-24T21:08:52.249Z,13.60
2017-08-24T21:09:54.884Z,10.60
2017-08-24T21:10:58.345Z,12.57
2017-08-24T21:12:00.958Z,9.30
2017-08-24T21:13:04.083Z,8.27
2017-08-24T21:14:06.627Z,9.20
2017-08-24T21:15:09.213Z,12.13
2017-08-24T21:16:11.778Z,10.17
2017-08-24T21:17:14.430Z,10.97
2017-08-24T21:18:16.965Z,9.60
2017-08-24T21:19:19.562Z,13.63
2017-08-24T21:20:22.197Z,8.50
2017-08-24T21:21:25.362Z,9.93
2017-08-24T21:22:27.955Z,8.53
2017-08-24T21:23:31.333Z,10.50
2017-08-24T21:24:33.925Z,10.77
2017-08-24T21:25:37.122Z,9.10
2017-08-24T21:26:39.695Z,10.93
2017-08-24T21:27:42.240Z,10.87
2017-08-24T21:28:44.837Z,7.97
2017-08-24T21:29:48.101Z,12.10
2017-08-24T21:30:50.717Z,9.37
2017-08-24T21:31:53.273Z,10.70
2017-08-24T21:32:56.597Z,16.50
2017-08-24T21:33:59.157Z,12.10
2017-08-24T21:35:01.698Z,10.83
2017-08-24T21:36:04.254Z,10.07
2017-08-24T21:37:07.353Z,13.30
2017-08-24T21:38:09.901Z,8.50
2017-08-24T21:39:12.570Z,12.33
2017-08-24T21:40:15.909Z,10.00
2017-08-24T21:41:18.534Z,8.70
2017-08-24T21:42:21.819Z,11.10
2017-08-24T21:43:24.366Z,12.07
2017-08-24T21:44:26.909Z,9.23
2017-08-24T21:45:30.181Z,10.30
2017-08-24T21:46:32.749Z,9.30
2017-08-24T21:47:35.292Z,8.30
2017-08-24T21:48:37.958Z,10.17
2017-08-24T21:49:40.515Z,9.20
2017-08-24T21:50:43.073Z,8.10
2017-08-24T21:51:45.618Z,9.80
2017-08-24T21:52:48.162Z,10.83
2017-08-24T21:53:50.811Z,12.80
2017-08-24T21:54:53.353Z,12.27
2017-08-24T21:55:55.949Z,12.53
2017-08-24T21:56:58.578Z,9.20
2017-08-24T21:58:01.893Z,8.13
2017-08-24T21:59:04.446Z,10.53
2017-08-24T22:00:07.029Z,11.90
2017-08-24T22:01:09.569Z,8.83
2017-08-24T22:02:12.877Z,9.87
2017-08-24T22:03:15.492Z,9.23
2017-08-24T22:04:18.093Z,15.23
2017-08-24T22:05:20.644Z,10.67
2017-08-24T22:06:23.220Z,11.27
2017-08-24T22:07:25.798Z,10.03
2017-08-24T22:08:28.349Z,11.50
2017-08-24T22:09:30.897Z,11.60
2017-08-24T22:10:33.453Z,12.37
2017-08-24T22:11:36.294Z,8.80
2017-08-24T22:12:38.870Z,10.10
2017-08-24T22:13:41.426Z,13.70
2017-08-24T22:14:44.014Z,28.40
2017-08-24T22:15:46.565Z,13.00
2017-08-24T22:16:49.121Z,12.13
2017-08-24T22:17:51.753Z,11.07
2017-08-24T22:18:54.298Z,14.53
2017-08-24T22:19:56.911Z,15.30
2017-08-24T22:20:59.529Z,8.83
2017-08-24T22:22:02.173Z,9.80
2017-08-24T22:23:05.443Z,13.73
2017-08-24T22:24:07.982Z,10.20
2017-08-24T22:25:10.554Z,11.83
2017-08-24T22:26:13.102Z,13.90
2017-08-24T22:27:16.198Z,13.27
2017-08-24T22:28:18.749Z,17.17
2017-08-24T22:29:21.294Z,11.10
2017-08-24T22:30:23.901Z,9.60
2017-08-24T22:31:26.565Z,14.03
2017-08-24T22:32:29.114Z,13.07
2017-08-24T22:33:31.658Z,12.50
2017-08-24T22:34:34.206Z,11.23
2017-08-24T22:35:36.859Z,9.03
2017-08-24T22:36:39.561Z,12.83
2017-08-24T22:37:42.171Z,9.47
2017-08-24T22:38:45.541Z,11.27
2017-08-24T22:39:48.109Z,11.30
2017-08-24T22:40:50.657Z,12.03
2017-08-24T22:41:53.217Z,9.60
2017-08-24T22:42:55.797Z,9.30
2017-08-24T22:43:58.343Z,10.77
2017-08-24T22:45:00.892Z,10.73
2017-08-24T22:46:03.427Z,9.10
2017-08-24T22:47:05.980Z,11.40
2017-08-24T22:48:08.541Z,14.63
2017-08-24T22:49:11.101Z,9.30
2017-08-24T22:50:13.673Z,12.10
2017-08-24T22:51:16.213Z,9.73
2017-08-24T22:52:18.785Z,11.00
2017-08-24T22:54:59.350Z,11.77
2017-08-24T22:56:07.673Z,11.20
2017-08-24T22:57:16.025Z,8.50
2017-08-24T22:58:24.389Z,9.83
2017-08-24T22:59:32.713Z,18.70
2017-08-24T23:00:40.993Z,13.10
2017-08-24T23:01:49.225Z,16.50
2017-08-24T23:02:57.430Z,12.93
2017-08-24T23:04:00.029Z,9.90
2017-08-24T23:05:02.617Z,10.20
2017-08-24T23:06:05.851Z,10.60
2017-08-24T23:07:08.413Z,13.07
2017-08-24T23:08:10.985Z,13.80
2017-08-24T23:09:13.530Z,9.83
2017-08-24T23:10:16.065Z,9.30
2017-08-24T23:11:18.683Z,10.37
2017-08-24T23:12:21.223Z,12.67
2017-08-24T23:13:23.766Z,11.23
2017-08-24T23:14:26.364Z,8.53
2017-08-24T23:15:28.992Z,13.77
2017-08-24T23:16:31.549Z,16.63
2017-08-24T23:17:34.101Z,8.90
2017-08-24T23:18:36.727Z,12.00
2017-08-24T23:19:39.269Z,8.40
2017-08-24T23:20:42.622Z,10.43
2017-08-24T23:21:45.160Z,11.00
2017-08-24T23:22:47.801Z,10.03
2017-08-24T23:23:51.164Z,16.20
2017-08-24T23:24:53.709Z,12.50
2017-08-24T23:25:56.281Z,15.03
2017-08-24T23:26:58.837Z,13.40
2017-08-24T23:28:01.381Z,12.13
2017-08-24T23:29:03.927Z,9.57
2017-08-24T23:30:06.469Z,8.70
2017-08-24T23:31:09.127Z,9.93
2017-08-24T23:32:11.972Z,13.10
2017-08-24T23:33:14.513Z,10.67
2017-08-24T23:34:17.126Z,9.80
2017-08-24T23:35:19.677Z,10.90
2017-08-24T23:36:22.273Z,10.77
2017-08-24T23:37:24.818Z,18.23
2017-08-24T23:38:27.429Z,14.40
2017-08-24T23:39:29.976Z,10.93
2017-08-24T23:40:32.577Z,12.43
2017-08-24T23:41:35.139Z,10.10
2017-08-24T23:42:37.687Z,10.80
2017-08-24T23:43:40.262Z,12.67
2017-08-24T23:44:42.889Z,9.83
2017-08-24T23:45:45.461Z,11.50
2017-08-24T23:46:48.037Z,11.83
2017-08-24T23:47:50.581Z,10.97
2017-08-24T23:48:53.214Z,20.23
2017-08-24T23:49:55.758Z,10.20
2017-08-24T23:50:58.345Z,11.63
2017-08-24T23:52:00.886Z,9.87
2017-08-24T23:53:03.429Z,13.13
2017-08-24T23:54:05.970Z,8.57
2017-08-24T23:55:08.513Z,10.90
2017-08-24T23:56:11.086Z,12.77
2017-08-24T23:57:13.640Z,11.03
2017-08-24T23:58:16.197Z,10.67
2017-08-24T23:59:18.737Z,10.33
